sensor_id;sensor_type;location;lat;lon;timestamp;P1;durP1;ratioP1;P2;durP2;ratioP2
84444;SDS011;74683;48.402;10.596;2024-03-02T00:00:06;14.60;;;6.35;;
84444;SDS011;74683;48.402;10.596;2024-03-02T00:02:43;15.35;;;7.63;;
84444;SDS011;74683;48.402;10.596;2024-03-02T00:05:11;13.43;;;7.00;;
84444;SDS011;74683;48.402;10.596;2024-03-02T00:07:40;16.85;;;7.28;;
84444;SDS011;74683;48.402;10.596;2024-03-02T00:10:09;17.70;;;8.70;;
84444;SDS011;74683;48.402;10.596;2024-03-02T00:17:56;15.73;;;7.22;;
84444;SDS011;74683;48.402;10.596;2024-03-02T00:20:25;12.25;;;5.88;;
84444;SDS011;74683;48.402;10.596;2024-03-02T00:23:03;19.02;;;6.85;;
84444;SDS011;74683;48.402;10.596;2024-03-02T00:25:41;35.75;;;7.97;;
84444;SDS011;74683;48.402;10.596;2024-03-02T00:28:31;24.08;;;9.63;;
84444;SDS011;74683;48.402;10.596;2024-03-02T00:31:05;33.45;;;10.80;;
84444;SDS011;74683;48.402;10.596;2024-03-02T00:33:43;37.92;;;8.93;;
84444;SDS011;74683;48.402;10.596;2024-03-02T00:36:15;30.02;;;8.95;;
84444;SDS011;74683;48.402;10.596;2024-03-02T00:38:46;39.70;;;9.98;;
84444;SDS011;74683;48.402;10.596;2024-03-02T00:41:17;37.10;;;10.95;;
84444;SDS011;74683;48.402;10.596;2024-03-02T00:43:54;46.03;;;12.57;;
84444;SDS011;74683;48.402;10.596;2024-03-02T00:46:33;43.55;;;11.75;;
84444;SDS011;74683;48.402;10.596;2024-03-02T00:49:03;37.10;;;11.85;;
84444;SDS011;74683;48.402;10.596;2024-03-02T00:51:32;30.58;;;9.63;;
84444;SDS011;74683;48.402;10.596;2024-03-02T00:54:02;34.35;;;8.95;;
84444;SDS011;74683;48.402;10.596;2024-03-02T00:56:31;26.42;;;9.02;;
84444;SDS011;74683;48.402;10.596;2024-03-02T00:58:58;31.95;;;9.88;;
84444;SDS011;74683;48.402;10.596;2024-03-02T01:01:25;24.70;;;9.52;;
84444;SDS011;74683;48.402;10.596;2024-03-02T01:03:52;18.35;;;8.25;;
84444;SDS011;74683;48.402;10.596;2024-03-02T01:06:19;27.77;;;10.20;;
84444;SDS011;74683;48.402;10.596;2024-03-02T01:08:46;15.20;;;7.63;;
84444;SDS011;74683;48.402;10.596;2024-03-02T01:11:18;39.90;;;9.80;;
84444;SDS011;74683;48.402;10.596;2024-03-02T01:13:46;23.38;;;9.23;;
84444;SDS011;74683;48.402;10.596;2024-03-02T01:16:13;34.28;;;10.10;;
84444;SDS011;74683;48.402;10.596;2024-03-02T01:18:41;24.65;;;9.88;;
84444;SDS011;74683;48.402;10.596;2024-03-02T01:21:09;26.27;;;10.07;;
84444;SDS011;74683;48.402;10.596;2024-03-02T01:23:35;30.70;;;11.20;;
84444;SDS011;74683;48.402;10.596;2024-03-02T01:26:02;23.50;;;9.77;;
84444;SDS011;74683;48.402;10.596;2024-03-02T01:28:29;19.50;;;8.57;;
84444;SDS011;74683;48.402;10.596;2024-03-02T01:30:55;20.60;;;8.63;;
84444;SDS011;74683;48.402;10.596;2024-03-02T01:33:22;20.60;;;8.65;;
84444;SDS011;74683;48.402;10.596;2024-03-02T01:35:49;18.48;;;8.25;;
84444;SDS011;74683;48.402;10.596;2024-03-02T01:38:16;17.23;;;8.20;;
84444;SDS011;74683;48.402;10.596;2024-03-02T01:40:42;15.27;;;7.85;;
84444;SDS011;74683;48.402;10.596;2024-03-02T01:43:11;16.48;;;8.20;;
84444;SDS011;74683;48.402;10.596;2024-03-02T01:45:37;19.65;;;8.35;;
84444;SDS011;74683;48.402;10.596;2024-03-02T01:48:05;18.02;;;8.60;;
84444;SDS011;74683;48.402;10.596;2024-03-02T01:50:33;19.10;;;9.38;;
84444;SDS011;74683;48.402;10.596;2024-03-02T01:53:00;16.50;;;7.85;;
84444;SDS011;74683;48.402;10.596;2024-03-02T01:55:29;18.02;;;8.45;;
84444;SDS011;74683;48.402;10.596;2024-03-02T01:57:57;16.42;;;7.80;;
84444;SDS011;74683;48.402;10.596;2024-03-02T02:00:24;19.77;;;8.73;;
84444;SDS011;74683;48.402;10.596;2024-03-02T02:02:54;15.98;;;7.95;;
84444;SDS011;74683;48.402;10.596;2024-03-02T02:05:21;18.30;;;7.93;;
84444;SDS011;74683;48.402;10.596;2024-03-02T02:07:48;14.95;;;7.80;;
84444;SDS011;74683;48.402;10.596;2024-03-02T02:10:15;15.93;;;8.00;;
84444;SDS011;74683;48.402;10.596;2024-03-02T02:12:42;14.55;;;7.35;;
84444;SDS011;74683;48.402;10.596;2024-03-02T02:15:27;14.95;;;7.93;;
84444;SDS011;74683;48.402;10.596;2024-03-02T02:17:55;17.48;;;8.57;;
84444;SDS011;74683;48.402;10.596;2024-03-02T02:20:23;20.55;;;9.38;;
84444;SDS011;74683;48.402;10.596;2024-03-02T02:23:00;19.48;;;8.75;;
84444;SDS011;74683;48.402;10.596;2024-03-02T02:25:28;17.52;;;8.23;;
84444;SDS011;74683;48.402;10.596;2024-03-02T02:27:56;16.65;;;9.23;;
84444;SDS011;74683;48.402;10.596;2024-03-02T02:30:28;15.18;;;7.50;;
84444;SDS011;74683;48.402;10.596;2024-03-02T02:32:56;15.48;;;8.05;;
84444;SDS011;74683;48.402;10.596;2024-03-02T02:35:23;13.93;;;7.63;;
84444;SDS011;74683;48.402;10.596;2024-03-02T02:37:54;17.70;;;8.32;;
84444;SDS011;74683;48.402;10.596;2024-03-02T02:40:21;18.00;;;8.25;;
84444;SDS011;74683;48.402;10.596;2024-03-02T02:42:48;20.33;;;9.43;;
84444;SDS011;74683;48.402;10.596;2024-03-02T02:45:15;17.95;;;8.07;;
84444;SDS011;74683;48.402;10.596;2024-03-02T02:47:43;15.63;;;8.15;;
84444;SDS011;74683;48.402;10.596;2024-03-02T02:50:11;17.08;;;8.20;;
84444;SDS011;74683;48.402;10.596;2024-03-02T02:52:39;16.75;;;8.38;;
84444;SDS011;74683;48.402;10.596;2024-03-02T02:55:08;46.03;;;10.60;;
84444;SDS011;74683;48.402;10.596;2024-03-02T02:57:37;18.08;;;8.68;;
84444;SDS011;74683;48.402;10.596;2024-03-02T03:00:06;19.98;;;8.80;;
84444;SDS011;74683;48.402;10.596;2024-03-02T03:02:37;18.20;;;8.65;;
84444;SDS011;74683;48.402;10.596;2024-03-02T03:05:05;18.25;;;8.48;;
84444;SDS011;74683;48.402;10.596;2024-03-02T03:07:32;17.67;;;8.23;;
84444;SDS011;74683;48.402;10.596;2024-03-02T03:10:00;17.55;;;8.80;;
84444;SDS011;74683;48.402;10.596;2024-03-02T03:12:27;15.32;;;7.85;;
84444;SDS011;74683;48.402;10.596;2024-03-02T03:14:54;16.10;;;8.52;;
84444;SDS011;74683;48.402;10.596;2024-03-02T03:17:23;14.25;;;7.32;;
84444;SDS011;74683;48.402;10.596;2024-03-02T03:19:49;17.05;;;7.95;;
84444;SDS011;74683;48.402;10.596;2024-03-02T03:22:17;20.00;;;9.25;;
84444;SDS011;74683;48.402;10.596;2024-03-02T03:24:44;14.90;;;7.63;;
84444;SDS011;74683;48.402;10.596;2024-03-02T03:27:10;17.45;;;8.13;;
84444;SDS011;74683;48.402;10.596;2024-03-02T03:29:40;16.83;;;8.05;;
84444;SDS011;74683;48.402;10.596;2024-03-02T03:32:06;17.73;;;8.23;;
84444;SDS011;74683;48.402;10.596;2024-03-02T03:34:33;15.80;;;8.05;;
84444;SDS011;74683;48.402;10.596;2024-03-02T03:37:01;18.42;;;7.75;;
84444;SDS011;74683;48.402;10.596;2024-03-02T03:39:28;15.85;;;7.72;;
84444;SDS011;74683;48.402;10.596;2024-03-02T03:41:55;18.02;;;7.57;;
84444;SDS011;74683;48.402;10.596;2024-03-02T03:44:21;15.60;;;8.07;;
84444;SDS011;74683;48.402;10.596;2024-03-02T03:46:48;17.73;;;8.40;;
84444;SDS011;74683;48.402;10.596;2024-03-02T03:49:15;20.90;;;8.15;;
84444;SDS011;74683;48.402;10.596;2024-03-02T03:51:41;16.58;;;8.77;;
84444;SDS011;74683;48.402;10.596;2024-03-02T03:54:09;16.00;;;7.40;;
84444;SDS011;74683;48.402;10.596;2024-03-02T03:56:37;17.92;;;7.55;;
84444;SDS011;74683;48.402;10.596;2024-03-02T03:59:04;18.55;;;8.82;;
84444;SDS011;74683;48.402;10.596;2024-03-02T04:01:31;16.17;;;8.32;;
84444;SDS011;74683;48.402;10.596;2024-03-02T04:04:00;18.55;;;8.18;;
84444;SDS011;74683;48.402;10.596;2024-03-02T04:06:29;16.27;;;8.05;;
84444;SDS011;74683;48.402;10.596;2024-03-02T04:08:57;17.77;;;8.68;;
84444;SDS011;74683;48.402;10.596;2024-03-02T04:11:23;19.40;;;9.02;;
84444;SDS011;74683;48.402;10.596;2024-03-02T04:13:50;17.02;;;7.80;;
84444;SDS011;74683;48.402;10.596;2024-03-02T04:16:16;14.88;;;7.88;;
84444;SDS011;74683;48.402;10.596;2024-03-02T04:18:43;19.92;;;8.02;;
84444;SDS011;74683;48.402;10.596;2024-03-02T04:21:10;16.02;;;8.18;;
84444;SDS011;74683;48.402;10.596;2024-03-02T04:23:37;15.70;;;8.20;;
84444;SDS011;74683;48.402;10.596;2024-03-02T04:26:04;15.70;;;7.93;;
84444;SDS011;74683;48.402;10.596;2024-03-02T04:28:31;18.45;;;9.05;;
84444;SDS011;74683;48.402;10.596;2024-03-02T04:30:57;19.15;;;8.98;;
84444;SDS011;74683;48.402;10.596;2024-03-02T04:33:24;18.25;;;8.85;;
84444;SDS011;74683;48.402;10.596;2024-03-02T04:35:51;23.10;;;9.82;;
84444;SDS011;74683;48.402;10.596;2024-03-02T04:38:17;25.73;;;9.95;;
84444;SDS011;74683;48.402;10.596;2024-03-02T04:40:44;16.15;;;8.18;;
84444;SDS011;74683;48.402;10.596;2024-03-02T04:43:11;15.30;;;8.55;;
84444;SDS011;74683;48.402;10.596;2024-03-02T04:45:41;19.13;;;8.70;;
84444;SDS011;74683;48.402;10.596;2024-03-02T04:48:09;15.63;;;8.20;;
84444;SDS011;74683;48.402;10.596;2024-03-02T04:50:35;22.38;;;10.15;;
84444;SDS011;74683;48.402;10.596;2024-03-02T04:53:02;19.23;;;8.73;;
84444;SDS011;74683;48.402;10.596;2024-03-02T04:55:29;20.02;;;8.88;;
84444;SDS011;74683;48.402;10.596;2024-03-02T04:58:15;19.08;;;8.70;;
84444;SDS011;74683;48.402;10.596;2024-03-02T05:00:42;22.77;;;10.80;;
84444;SDS011;74683;48.402;10.596;2024-03-02T05:03:09;25.35;;;12.75;;
84444;SDS011;74683;48.402;10.596;2024-03-02T05:05:36;15.90;;;8.50;;
84444;SDS011;74683;48.402;10.596;2024-03-02T05:08:03;17.73;;;9.20;;
84444;SDS011;74683;48.402;10.596;2024-03-02T05:10:31;19.23;;;8.65;;
84444;SDS011;74683;48.402;10.596;2024-03-02T05:12:57;13.32;;;7.88;;
84444;SDS011;74683;48.402;10.596;2024-03-02T05:15:26;17.70;;;8.18;;
84444;SDS011;74683;48.402;10.596;2024-03-02T05:17:53;16.27;;;8.85;;
84444;SDS011;74683;48.402;10.596;2024-03-02T05:20:20;15.23;;;7.60;;
84444;SDS011;74683;48.402;10.596;2024-03-02T05:22:47;20.00;;;8.60;;
84444;SDS011;74683;48.402;10.596;2024-03-02T05:25:15;15.38;;;8.02;;
84444;SDS011;74683;48.402;10.596;2024-03-02T05:27:41;17.77;;;8.25;;
84444;SDS011;74683;48.402;10.596;2024-03-02T05:30:08;14.75;;;8.07;;
84444;SDS011;74683;48.402;10.596;2024-03-02T05:32:35;14.82;;;8.35;;
84444;SDS011;74683;48.402;10.596;2024-03-02T05:35:02;18.85;;;9.18;;
84444;SDS011;74683;48.402;10.596;2024-03-02T05:37:29;19.60;;;8.65;;
84444;SDS011;74683;48.402;10.596;2024-03-02T05:39:56;20.75;;;8.57;;
84444;SDS011;74683;48.402;10.596;2024-03-02T05:42:23;18.88;;;9.02;;
84444;SDS011;74683;48.402;10.596;2024-03-02T05:44:50;18.23;;;9.70;;
84444;SDS011;74683;48.402;10.596;2024-03-02T05:47:16;18.40;;;9.95;;
84444;SDS011;74683;48.402;10.596;2024-03-02T05:49:43;16.80;;;8.05;;
84444;SDS011;74683;48.402;10.596;2024-03-02T05:52:09;16.58;;;8.20;;
84444;SDS011;74683;48.402;10.596;2024-03-02T05:54:38;20.33;;;8.75;;
84444;SDS011;74683;48.402;10.596;2024-03-02T05:57:05;23.67;;;8.05;;
84444;SDS011;74683;48.402;10.596;2024-03-02T05:59:58;23.65;;;9.10;;
84444;SDS011;74683;48.402;10.596;2024-03-02T06:02:25;25.45;;;9.15;;
84444;SDS011;74683;48.402;10.596;2024-03-02T06:04:53;18.35;;;8.75;;
84444;SDS011;74683;48.402;10.596;2024-03-02T06:07:21;15.73;;;8.38;;
84444;SDS011;74683;48.402;10.596;2024-03-02T06:09:48;17.73;;;8.90;;
84444;SDS011;74683;48.402;10.596;2024-03-02T06:14:44;17.55;;;9.27;;
84444;SDS011;74683;48.402;10.596;2024-03-02T06:17:10;24.92;;;11.48;;
84444;SDS011;74683;48.402;10.596;2024-03-02T06:19:37;16.83;;;8.68;;
84444;SDS011;74683;48.402;10.596;2024-03-02T06:22:03;32.25;;;12.20;;
84444;SDS011;74683;48.402;10.596;2024-03-02T06:24:30;30.38;;;8.65;;
84444;SDS011;74683;48.402;10.596;2024-03-02T06:26:57;31.45;;;7.57;;
84444;SDS011;74683;48.402;10.596;2024-03-02T06:29:23;13.55;;;6.28;;
84444;SDS011;74683;48.402;10.596;2024-03-02T06:31:50;18.27;;;7.00;;
84444;SDS011;74683;48.402;10.596;2024-03-02T06:34:20;18.73;;;5.95;;
84444;SDS011;74683;48.402;10.596;2024-03-02T06:36:47;24.48;;;7.65;;
84444;SDS011;74683;48.402;10.596;2024-03-02T06:39:14;36.88;;;8.68;;
84444;SDS011;74683;48.402;10.596;2024-03-02T06:41:41;29.45;;;8.13;;
84444;SDS011;74683;48.402;10.596;2024-03-02T06:44:08;30.90;;;9.07;;
84444;SDS011;74683;48.402;10.596;2024-03-02T06:46:35;19.48;;;9.27;;
84444;SDS011;74683;48.402;10.596;2024-03-02T06:49:02;30.52;;;7.90;;
84444;SDS011;74683;48.402;10.596;2024-03-02T06:51:30;22.85;;;7.55;;
84444;SDS011;74683;48.402;10.596;2024-03-02T06:53:57;29.95;;;9.45;;
84444;SDS011;74683;48.402;10.596;2024-03-02T06:56:23;41.33;;;10.25;;
84444;SDS011;74683;48.402;10.596;2024-03-02T06:58:50;16.25;;;7.55;;
84444;SDS011;74683;48.402;10.596;2024-03-02T07:01:17;23.60;;;7.55;;
84444;SDS011;74683;48.402;10.596;2024-03-02T07:03:43;14.43;;;7.28;;
84444;SDS011;74683;48.402;10.596;2024-03-02T07:06:10;17.20;;;7.85;;
84444;SDS011;74683;48.402;10.596;2024-03-02T07:08:37;23.20;;;7.88;;
84444;SDS011;74683;48.402;10.596;2024-03-02T07:11:03;24.45;;;8.30;;
84444;SDS011;74683;48.402;10.596;2024-03-02T07:13:30;24.15;;;9.30;;
84444;SDS011;74683;48.402;10.596;2024-03-02T07:15:57;16.73;;;7.90;;
84444;SDS011;74683;48.402;10.596;2024-03-02T07:18:30;14.45;;;7.90;;
84444;SDS011;74683;48.402;10.596;2024-03-02T07:20:57;13.15;;;8.02;;
84444;SDS011;74683;48.402;10.596;2024-03-02T07:23:25;20.48;;;7.80;;
84444;SDS011;74683;48.402;10.596;2024-03-02T07:25:53;16.65;;;7.82;;
84444;SDS011;74683;48.402;10.596;2024-03-02T07:28:25;14.18;;;7.95;;
84444;SDS011;74683;48.402;10.596;2024-03-02T07:31:02;12.20;;;6.47;;
84444;SDS011;74683;48.402;10.596;2024-03-02T07:33:31;15.27;;;7.25;;
84444;SDS011;74683;48.402;10.596;2024-03-02T07:35:58;14.63;;;8.18;;
84444;SDS011;74683;48.402;10.596;2024-03-02T07:38:30;13.60;;;7.90;;
84444;SDS011;74683;48.402;10.596;2024-03-02T07:40:58;10.55;;;7.20;;
84444;SDS011;74683;48.402;10.596;2024-03-02T07:43:24;16.27;;;8.77;;
84444;SDS011;74683;48.402;10.596;2024-03-02T07:45:51;13.85;;;7.22;;
84444;SDS011;74683;48.402;10.596;2024-03-02T07:48:18;13.85;;;7.70;;
84444;SDS011;74683;48.402;10.596;2024-03-02T07:50:45;13.23;;;7.22;;
84444;SDS011;74683;48.402;10.596;2024-03-02T07:53:11;16.65;;;7.70;;
84444;SDS011;74683;48.402;10.596;2024-03-02T07:55:38;29.60;;;10.70;;
84444;SDS011;74683;48.402;10.596;2024-03-02T07:58:05;25.80;;;12.32;;
84444;SDS011;74683;48.402;10.596;2024-03-02T08:00:32;16.90;;;7.43;;
84444;SDS011;74683;48.402;10.596;2024-03-02T08:02:59;20.70;;;8.57;;
84444;SDS011;74683;48.402;10.596;2024-03-02T08:05:27;19.35;;;8.90;;
84444;SDS011;74683;48.402;10.596;2024-03-02T08:07:53;18.45;;;8.68;;
84444;SDS011;74683;48.402;10.596;2024-03-02T08:10:20;16.70;;;9.35;;
84444;SDS011;74683;48.402;10.596;2024-03-02T08:12:47;12.63;;;8.55;;
84444;SDS011;74683;48.402;10.596;2024-03-02T08:15:14;12.77;;;8.10;;
84444;SDS011;74683;48.402;10.596;2024-03-02T08:17:40;14.48;;;8.27;;
84444;SDS011;74683;48.402;10.596;2024-03-02T08:20:15;13.52;;;7.82;;
84444;SDS011;74683;48.402;10.596;2024-03-02T08:22:41;10.07;;;6.68;;
84444;SDS011;74683;48.402;10.596;2024-03-02T08:25:08;13.00;;;6.45;;
84444;SDS011;74683;48.402;10.596;2024-03-02T08:27:36;12.18;;;7.10;;
84444;SDS011;74683;48.402;10.596;2024-03-02T08:30:03;11.93;;;6.45;;
84444;SDS011;74683;48.402;10.596;2024-03-02T08:32:33;11.48;;;7.35;;
84444;SDS011;74683;48.402;10.596;2024-03-02T08:35:00;12.40;;;7.60;;
84444;SDS011;74683;48.402;10.596;2024-03-02T08:37:26;16.23;;;7.90;;
84444;SDS011;74683;48.402;10.596;2024-03-02T08:39:53;49.45;;;20.13;;
84444;SDS011;74683;48.402;10.596;2024-03-02T08:42:21;34.42;;;15.18;;
84444;SDS011;74683;48.402;10.596;2024-03-02T08:44:48;13.73;;;7.53;;
84444;SDS011;74683;48.402;10.596;2024-03-02T08:47:15;9.32;;;6.30;;
84444;SDS011;74683;48.402;10.596;2024-03-02T08:49:42;9.18;;;5.85;;
84444;SDS011;74683;48.402;10.596;2024-03-02T08:52:09;9.55;;;5.63;;
84444;SDS011;74683;48.402;10.596;2024-03-02T08:54:35;8.60;;;5.53;;
84444;SDS011;74683;48.402;10.596;2024-03-02T08:57:02;10.60;;;7.53;;
84444;SDS011;74683;48.402;10.596;2024-03-02T08:59:29;12.98;;;8.23;;
84444;SDS011;74683;48.402;10.596;2024-03-02T09:01:56;9.82;;;5.78;;
84444;SDS011;74683;48.402;10.596;2024-03-02T09:04:23;6.35;;;4.60;;
84444;SDS011;74683;48.402;10.596;2024-03-02T09:06:53;14.10;;;7.90;;
84444;SDS011;74683;48.402;10.596;2024-03-02T09:09:20;8.73;;;6.47;;
84444;SDS011;74683;48.402;10.596;2024-03-02T09:12:02;8.15;;;5.25;;
84444;SDS011;74683;48.402;10.596;2024-03-02T09:17:10;8.73;;;5.10;;
84444;SDS011;74683;48.402;10.596;2024-03-02T09:19:38;6.65;;;4.60;;
84444;SDS011;74683;48.402;10.596;2024-03-02T09:24:32;8.15;;;5.70;;
84444;SDS011;74683;48.402;10.596;2024-03-02T09:26:59;5.63;;;3.85;;
84444;SDS011;74683;48.402;10.596;2024-03-02T09:29:26;7.53;;;4.95;;
84444;SDS011;74683;48.402;10.596;2024-03-02T09:31:53;12.65;;;6.85;;
84444;SDS011;74683;48.402;10.596;2024-03-02T09:34:19;8.00;;;5.80;;
84444;SDS011;74683;48.402;10.596;2024-03-02T09:36:46;7.75;;;5.03;;
84444;SDS011;74683;48.402;10.596;2024-03-02T09:39:13;10.68;;;5.53;;
84444;SDS011;74683;48.402;10.596;2024-03-02T09:41:40;9.13;;;5.40;;
84444;SDS011;74683;48.402;10.596;2024-03-02T09:44:07;11.50;;;6.35;;
84444;SDS011;74683;48.402;10.596;2024-03-02T09:46:35;12.48;;;5.75;;
84444;SDS011;74683;48.402;10.596;2024-03-02T09:49:02;9.95;;;6.18;;
84444;SDS011;74683;48.402;10.596;2024-03-02T09:51:30;27.48;;;15.45;;
84444;SDS011;74683;48.402;10.596;2024-03-02T09:53:58;11.00;;;6.00;;
84444;SDS011;74683;48.402;10.596;2024-03-02T09:56:46;19.25;;;10.23;;
84444;SDS011;74683;48.402;10.596;2024-03-02T09:59:13;23.63;;;13.15;;
84444;SDS011;74683;48.402;10.596;2024-03-02T10:01:55;12.93;;;7.57;;
84444;SDS011;74683;48.402;10.596;2024-03-02T10:04:26;12.05;;;8.30;;
84444;SDS011;74683;48.402;10.596;2024-03-02T10:09:53;10.68;;;6.60;;
84444;SDS011;74683;48.402;10.596;2024-03-02T10:12:19;6.60;;;4.53;;
84444;SDS011;74683;48.402;10.596;2024-03-02T10:14:46;8.10;;;4.45;;
84444;SDS011;74683;48.402;10.596;2024-03-02T10:17:16;6.18;;;4.07;;
84444;SDS011;74683;48.402;10.596;2024-03-02T10:19:43;7.28;;;4.32;;
84444;SDS011;74683;48.402;10.596;2024-03-02T10:22:10;8.25;;;5.15;;
84444;SDS011;74683;48.402;10.596;2024-03-02T10:24:37;8.68;;;4.88;;
84444;SDS011;74683;48.402;10.596;2024-03-02T10:29:45;13.20;;;6.82;;
84444;SDS011;74683;48.402;10.596;2024-03-02T10:32:12;12.25;;;7.13;;
84444;SDS011;74683;48.402;10.596;2024-03-02T10:34:42;12.80;;;6.82;;
84444;SDS011;74683;48.402;10.596;2024-03-02T10:37:11;10.45;;;6.25;;
84444;SDS011;74683;48.402;10.596;2024-03-02T10:39:39;10.10;;;5.75;;
84444;SDS011;74683;48.402;10.596;2024-03-02T10:42:07;10.40;;;6.18;;
84444;SDS011;74683;48.402;10.596;2024-03-02T10:44:34;8.73;;;5.18;;
84444;SDS011;74683;48.402;10.596;2024-03-02T10:47:02;5.50;;;3.30;;
84444;SDS011;74683;48.402;10.596;2024-03-02T10:49:30;6.20;;;3.55;;
84444;SDS011;74683;48.402;10.596;2024-03-02T10:51:58;5.47;;;3.55;;
84444;SDS011;74683;48.402;10.596;2024-03-02T10:54:26;4.20;;;2.63;;
84444;SDS011;74683;48.402;10.596;2024-03-02T10:56:56;4.35;;;2.45;;
84444;SDS011;74683;48.402;10.596;2024-03-02T11:01:56;4.75;;;2.42;;
84444;SDS011;74683;48.402;10.596;2024-03-02T11:04:30;3.55;;;2.22;;
84444;SDS011;74683;48.402;10.596;2024-03-02T11:07:07;3.75;;;2.58;;
84444;SDS011;74683;48.402;10.596;2024-03-02T11:09:38;3.45;;;2.45;;
84444;SDS011;74683;48.402;10.596;2024-03-02T11:15:04;2.88;;;1.73;;
84444;SDS011;74683;48.402;10.596;2024-03-02T11:17:37;3.72;;;1.90;;
84444;SDS011;74683;48.402;10.596;2024-03-02T11:20:06;2.97;;;1.65;;
84444;SDS011;74683;48.402;10.596;2024-03-02T11:25:02;2.90;;;1.75;;
84444;SDS011;74683;48.402;10.596;2024-03-02T11:33:04;2.35;;;1.45;;
84444;SDS011;74683;48.402;10.596;2024-03-02T11:35:37;3.60;;;1.95;;
84444;SDS011;74683;48.402;10.596;2024-03-02T11:38:04;6.97;;;3.75;;
84444;SDS011;74683;48.402;10.596;2024-03-02T11:40:30;2.97;;;1.63;;
84444;SDS011;74683;48.402;10.596;2024-03-02T11:42:58;4.68;;;1.70;;
84444;SDS011;74683;48.402;10.596;2024-03-02T11:45:26;5.35;;;1.75;;
84444;SDS011;74683;48.402;10.596;2024-03-02T11:47:56;2.83;;;1.70;;
84444;SDS011;74683;48.402;10.596;2024-03-02T11:50:31;4.35;;;1.75;;
84444;SDS011;74683;48.402;10.596;2024-03-02T11:53:01;2.88;;;1.80;;
84444;SDS011;74683;48.402;10.596;2024-03-02T11:55:32;3.15;;;1.33;;
84444;SDS011;74683;48.402;10.596;2024-03-02T11:58:31;4.10;;;2.22;;
84444;SDS011;74683;48.402;10.596;2024-03-02T12:01:51;3.65;;;1.13;;
84444;SDS011;74683;48.402;10.596;2024-03-02T12:05:12;3.17;;;1.83;;
84444;SDS011;74683;48.402;10.596;2024-03-02T12:08:03;4.57;;;2.30;;
84444;SDS011;74683;48.402;10.596;2024-03-02T12:14:49;2.45;;;1.38;;
84444;SDS011;74683;48.402;10.596;2024-03-02T12:18:15;2.17;;;1.20;;
84444;SDS011;74683;48.402;10.596;2024-03-02T12:21:18;2.35;;;1.50;;
84444;SDS011;74683;48.402;10.596;2024-03-02T12:23:45;3.25;;;1.70;;
84444;SDS011;74683;48.402;10.596;2024-03-02T12:26:18;4.57;;;2.03;;
84444;SDS011;74683;48.402;10.596;2024-03-02T12:28:50;5.28;;;2.10;;
84444;SDS011;74683;48.402;10.596;2024-03-02T12:34:07;7.75;;;3.33;;
84444;SDS011;74683;48.402;10.596;2024-03-02T12:37:03;5.55;;;3.60;;
84444;SDS011;74683;48.402;10.596;2024-03-02T12:39:56;6.85;;;4.70;;
84444;SDS011;74683;48.402;10.596;2024-03-02T12:42:47;5.00;;;2.67;;
84444;SDS011;74683;48.402;10.596;2024-03-02T12:48:36;4.15;;;1.90;;
84444;SDS011;74683;48.402;10.596;2024-03-02T12:51:04;7.05;;;3.60;;
84444;SDS011;74683;48.402;10.596;2024-03-02T12:53:31;6.70;;;3.33;;
84444;SDS011;74683;48.402;10.596;2024-03-02T12:55:58;4.72;;;2.70;;
84444;SDS011;74683;48.402;10.596;2024-03-02T12:58:26;6.03;;;3.30;;
84444;SDS011;74683;48.402;10.596;2024-03-02T13:01:14;5.55;;;3.10;;
84444;SDS011;74683;48.402;10.596;2024-03-02T13:07:23;7.10;;;3.45;;
84444;SDS011;74683;48.402;10.596;2024-03-02T13:10:33;7.18;;;3.15;;
84444;SDS011;74683;48.402;10.596;2024-03-02T13:17:24;6.70;;;3.05;;
84444;SDS011;74683;48.402;10.596;2024-03-02T13:20:32;4.65;;;2.95;;
84444;SDS011;74683;48.402;10.596;2024-03-02T13:23:49;5.78;;;2.58;;
84444;SDS011;74683;48.402;10.596;2024-03-02T13:26:22;8.65;;;3.97;;
84444;SDS011;74683;48.402;10.596;2024-03-02T13:28:55;7.30;;;3.83;;
84444;SDS011;74683;48.402;10.596;2024-03-02T13:31:35;5.95;;;3.63;;
84444;SDS011;74683;48.402;10.596;2024-03-02T13:34:03;7.68;;;4.10;;
84444;SDS011;74683;48.402;10.596;2024-03-02T13:36:47;6.75;;;3.50;;
84444;SDS011;74683;48.402;10.596;2024-03-02T13:39:59;6.63;;;3.78;;
84444;SDS011;74683;48.402;10.596;2024-03-02T13:46:24;6.68;;;3.67;;
84444;SDS011;74683;48.402;10.596;2024-03-02T13:49:49;10.18;;;5.95;;
84444;SDS011;74683;48.402;10.596;2024-03-02T13:53:20;11.98;;;5.45;;
84444;SDS011;74683;48.402;10.596;2024-03-02T13:55:54;11.00;;;5.53;;
84444;SDS011;74683;48.402;10.596;2024-03-02T13:58:42;10.15;;;5.35;;
84444;SDS011;74683;48.402;10.596;2024-03-02T14:01:13;10.95;;;6.05;;
84444;SDS011;74683;48.402;10.596;2024-03-02T14:04:14;12.18;;;5.93;;
84444;SDS011;74683;48.402;10.596;2024-03-02T14:06:49;10.68;;;5.75;;
84444;SDS011;74683;48.402;10.596;2024-03-02T14:09:20;11.52;;;5.72;;
84444;SDS011;74683;48.402;10.596;2024-03-02T14:11:58;12.00;;;5.25;;
84444;SDS011;74683;48.402;10.596;2024-03-02T14:14:30;13.82;;;6.43;;
84444;SDS011;74683;48.402;10.596;2024-03-02T14:17:00;9.75;;;5.85;;
84444;SDS011;74683;48.402;10.596;2024-03-02T14:19:32;10.82;;;6.10;;
84444;SDS011;74683;48.402;10.596;2024-03-02T14:22:00;11.52;;;6.13;;
84444;SDS011;74683;48.402;10.596;2024-03-02T14:24:37;12.65;;;6.32;;
84444;SDS011;74683;48.402;10.596;2024-03-02T14:27:32;10.93;;;5.93;;
84444;SDS011;74683;48.402;10.596;2024-03-02T14:30:35;13.43;;;6.07;;
84444;SDS011;74683;48.402;10.596;2024-03-02T14:33:38;9.63;;;5.68;;
84444;SDS011;74683;48.402;10.596;2024-03-02T14:36:06;11.10;;;5.40;;
84444;SDS011;74683;48.402;10.596;2024-03-02T14:38:33;9.43;;;4.95;;
84444;SDS011;74683;48.402;10.596;2024-03-02T14:41:03;11.05;;;5.95;;
84444;SDS011;74683;48.402;10.596;2024-03-02T14:43:32;11.30;;;5.95;;
84444;SDS011;74683;48.402;10.596;2024-03-02T14:45:59;11.68;;;6.35;;
84444;SDS011;74683;48.402;10.596;2024-03-02T14:48:40;14.52;;;6.70;;
84444;SDS011;74683;48.402;10.596;2024-03-02T14:51:26;11.55;;;6.20;;
84444;SDS011;74683;48.402;10.596;2024-03-02T14:53:57;10.60;;;5.97;;
84444;SDS011;74683;48.402;10.596;2024-03-02T14:56:25;11.93;;;5.90;;
84444;SDS011;74683;48.402;10.596;2024-03-02T14:58:58;10.77;;;5.93;;
84444;SDS011;74683;48.402;10.596;2024-03-02T15:01:39;9.77;;;5.82;;
84444;SDS011;74683;48.402;10.596;2024-03-02T15:04:13;10.65;;;6.13;;
84444;SDS011;74683;48.402;10.596;2024-03-02T15:09:18;18.02;;;7.10;;
84444;SDS011;74683;48.402;10.596;2024-03-02T15:11:53;13.70;;;6.97;;
84444;SDS011;74683;48.402;10.596;2024-03-02T15:14:32;14.38;;;6.80;;
84444;SDS011;74683;48.402;10.596;2024-03-02T15:17:15;13.63;;;6.95;;
84444;SDS011;74683;48.402;10.596;2024-03-02T15:19:42;14.05;;;6.68;;
84444;SDS011;74683;48.402;10.596;2024-03-02T15:22:13;17.50;;;8.35;;
84444;SDS011;74683;48.402;10.596;2024-03-02T15:25:21;18.45;;;7.88;;
84444;SDS011;74683;48.402;10.596;2024-03-02T15:28:22;14.82;;;7.75;;
84444;SDS011;74683;48.402;10.596;2024-03-02T15:36:48;17.08;;;8.52;;
84444;SDS011;74683;48.402;10.596;2024-03-02T15:39:37;17.30;;;8.40;;
84444;SDS011;74683;48.402;10.596;2024-03-02T15:45:40;19.58;;;8.52;;
84444;SDS011;74683;48.402;10.596;2024-03-02T15:56:29;16.08;;;6.47;;
84444;SDS011;74683;48.402;10.596;2024-03-02T16:03:19;14.85;;;6.38;;
84444;SDS011;74683;48.402;10.596;2024-03-02T16:05:50;15.77;;;6.95;;